Airfield :
LOGIN :

Register | Disclaimer

   EN    FR    IT 

 










Legend :    VFR   Marginal VFR   IFR   Intensive IFR   Very Intensive IFR
Visi :
Ceiling :
>= 8 km
>= 3000ft
5 to 8 km
1000 to 3000 ft
1500m to 5 km
500 to 1000 ft
800 to 1500m
200 to 500 ft
< 800m
< 200 ft
Symbols :   Thunderstorms  Fog  Heavy snow  Heavy precipitations  Wind > 20 kt
SIGMETs :     Misc.  Thunderstorms  Icing  Turbulence  Mountain Waves  Volcanic Ashes







- Airport Elevation : 158 ft
- IATA code : QAR


EHDL - Deelen Airbase

CURRENT METAR :
  • 260725Z AUTO 21010KT 160V260 9999 BKN044 BKN052 OVC059 15/10 Q1013 BLU

EXPIRED METARs :
  • 260655Z AUTO 21009KT 150V260 9999 OVC045 14/10 Q1013 BLU
  • 260625Z AUTO 21009KT 160V260 8000 BR OVC053 13/10 Q1013 BLU
  • 260555Z AUTO 21009KT 160V260 7000 BR BKN058 OVC130 13/10 Q1013 WHT
  • 260525Z AUTO 21008KT 150V270 6000 BR OVC046 12/10 Q1014 WHT
  • 260455Z AUTO 21006KT 150V230 5000 BR SCT065 BKN071 BKN082 11/09 Q1014 WHT
  • 260425Z AUTO 21006KT 130V250 5000 BR FEW047 BKN081 OVC150 10/09 Q1014 WHT

Expired Forecast.
No reported NOTAMs for that airfield.



MET'MAP, your aeronautical weather chart ! - Copyright ORBIFLY December 2007 - Disclaimer

ORBIFLY MET'MAP TEAM :

Programming & Development : Alexandra Zaïnal
Concept & Development : Baudouin d'Aumeries
Co-Development & Prog : Marc-Olivier Méhu
Technical & hardware support : Manuel Goepfert

Contact : metmap@orbifly.com




SOURCES & CREDITS :

   NOAA